Spike — 9HA2419 — position and weather

sailwx.info

Track history (hours):
 
Tides and Currents Weather Stations Pressure Air Temp Water Temp Dewpoint Dewpoint Depression Visibility Wind Speed Wind Dir Waves Ship Positions

Spike

Last reported at 2017-Dec-17 15:53 UTC. Time now 2017-Dec-18 12:57 UTC.
Position N 40°27' W 073°47'.

Length 249 m; draft 8.1 m.

Type: Ship (hazmat cat A). MMSI: 248571000.

Date/timePositionNaut miles runAvg speedWind from/ knotsBaromVisibWave heightAir tempDewpointWater temp
2017-Dec-17 15:53N 40°27' W 073°47'3 8.1
2017-Dec-17 15:28N 40°27' W 073°52'511.1
2017-Dec-17 15:00N 40°28' W 073°58'612.3
2017-Dec-17 14:30N 40°29' W 074°06'7 6.3
2017-Dec-17 13:19N 40°32' W 074°15'1 4.1
2017-Dec-17 12:59N 40°33' W 074°14'2 3.7
2017-Dec-17 12:30N 40°35' W 074°13'2 3.1
2017-Dec-17 12:00N 40°36' W 074°12'2 3.0
2017-Dec-17 11:30N 40°38' W 074°12'3 0.1
2017-Dec-15 23:04N 40°39' W 074°08'3 6.0
2017-Dec-15 22:36N 40°39' W 074°04'1 7.2
2017-Dec-15 22:28N 40°38' W 074°03'3 6.1
2017-Dec-15 21:58N 40°35' W 074°02'  
Track history (hours):
 
Tides and Currents Weather Stations Pressure Air Temp Water Temp Dewpoint Dewpoint Depression Visibility Wind Speed Wind Dir Waves Ship Positions

Spike

Last reported at 2017-Dec-17 15:53 UTC. Time now 2017-Dec-18 12:57 UTC.
Position N 40°27' W 073°47'.

Length 249 m; draft 8.1 m.

Type: Ship (hazmat cat A). MMSI: 248571000.

Date/timePositionNaut miles runAvg speedWind from/ knotsBaromVisibWave heightAir tempDewpointWater temp
2017-Dec-17 15:53N 40°27' W 073°47'3 8.1
2017-Dec-17 15:28N 40°27' W 073°52'511.1
2017-Dec-17 15:00N 40°28' W 073°58'612.3
2017-Dec-17 14:30N 40°29' W 074°06'7 6.3
2017-Dec-17 13:19N 40°32' W 074°15'1 4.1
2017-Dec-17 12:59N 40°33' W 074°14'2 3.7
2017-Dec-17 12:30N 40°35' W 074°13'2 3.1
2017-Dec-17 12:00N 40°36' W 074°12'2 3.0
2017-Dec-17 11:30N 40°38' W 074°12'3 0.1
2017-Dec-15 23:04N 40°39' W 074°08'3 6.0
2017-Dec-15 22:36N 40°39' W 074°04'1 7.2
2017-Dec-15 22:28N 40°38' W 074°03'3 6.1
2017-Dec-15 21:58N 40°35' W 074°02'  

Dump ship's entire track history